sensor_id;sensor_type;location;lat;lon;timestamp;temperature;humidity
31369;DHT22;18004;48.416;10.066;2023-05-10T00:01:06;13.90;99.90
31369;DHT22;18004;48.416;10.066;2023-05-10T00:03:32;13.90;99.90
31369;DHT22;18004;48.416;10.066;2023-05-10T00:05:58;13.80;99.90
31369;DHT22;18004;48.416;10.066;2023-05-10T00:08:23;13.90;99.90
31369;DHT22;18004;48.416;10.066;2023-05-10T00:10:49;13.90;99.90
31369;DHT22;18004;48.416;10.066;2023-05-10T00:13:15;13.90;99.90
31369;DHT22;18004;48.416;10.066;2023-05-10T00:15:41;13.90;99.90
31369;DHT22;18004;48.416;10.066;2023-05-10T00:18:06;13.90;99.90
31369;DHT22;18004;48.416;10.066;2023-05-10T00:20:32;13.80;99.90
31369;DHT22;18004;48.416;10.066;2023-05-10T00:22:58;13.90;99.90
31369;DHT22;18004;48.416;10.066;2023-05-10T00:25:24;13.80;99.90
31369;DHT22;18004;48.416;10.066;2023-05-10T00:27:50;13.80;99.90
31369;DHT22;18004;48.416;10.066;2023-05-10T00:30:16;13.70;99.90
31369;DHT22;18004;48.416;10.066;2023-05-10T00:32:41;13.70;99.90
31369;DHT22;18004;48.416;10.066;2023-05-10T00:35:09;13.80;99.90
31369;DHT22;18004;48.416;10.066;2023-05-10T00:37:35;13.70;99.90
31369;DHT22;18004;48.416;10.066;2023-05-10T00:40:01;13.70;99.90
31369;DHT22;18004;48.416;10.066;2023-05-10T00:42:26;13.70;99.90
31369;DHT22;18004;48.416;10.066;2023-05-10T00:44:52;13.70;99.90
31369;DHT22;18004;48.416;10.066;2023-05-10T00:47:18;13.70;99.90
31369;DHT22;18004;48.416;10.066;2023-05-10T00:49:44;13.70;99.90
31369;DHT22;18004;48.416;10.066;2023-05-10T00:52:11;13.60;99.90
31369;DHT22;18004;48.416;10.066;2023-05-10T00:54:37;13.60;99.90
31369;DHT22;18004;48.416;10.066;2023-05-10T00:57:03;13.60;99.90
31369;DHT22;18004;48.416;10.066;2023-05-10T00:59:29;13.60;99.90
31369;DHT22;18004;48.416;10.066;2023-05-10T01:01:55;13.50;99.90
31369;DHT22;18004;48.416;10.066;2023-05-10T01:04:21;13.50;99.90
31369;DHT22;18004;48.416;10.066;2023-05-10T01:06:52;13.50;99.90
31369;DHT22;18004;48.416;10.066;2023-05-10T01:09:19;13.50;99.90
31369;DHT22;18004;48.416;10.066;2023-05-10T01:11:46;13.50;99.90
31369;DHT22;18004;48.416;10.066;2023-05-10T01:14:11;13.50;99.90
31369;DHT22;18004;48.416;10.066;2023-05-10T01:16:39;13.40;99.90
31369;DHT22;18004;48.416;10.066;2023-05-10T01:19:19;13.40;99.90
31369;DHT22;18004;48.416;10.066;2023-05-10T01:22:09;13.50;99.90
31369;DHT22;18004;48.416;10.066;2023-05-10T01:33:47;13.40;99.90
31369;DHT22;18004;48.416;10.066;2023-05-10T01:36:30;13.30;99.90
31369;DHT22;18004;48.416;10.066;2023-05-10T01:39:01;13.30;99.90
31369;DHT22;18004;48.416;10.066;2023-05-10T01:47:05;13.30;99.90
31369;DHT22;18004;48.416;10.066;2023-05-10T01:49:36;13.30;99.90
31369;DHT22;18004;48.416;10.066;2023-05-10T01:52:06;13.30;99.90
31369;DHT22;18004;48.416;10.066;2023-05-10T01:54:34;13.30;99.90
31369;DHT22;18004;48.416;10.066;2023-05-10T01:57:05;13.30;99.90
31369;DHT22;18004;48.416;10.066;2023-05-10T01:59:34;13.30;99.90
31369;DHT22;18004;48.416;10.066;2023-05-10T02:02:02;13.30;99.90
31369;DHT22;18004;48.416;10.066;2023-05-10T02:04:29;13.30;99.90
31369;DHT22;18004;48.416;10.066;2023-05-10T02:06:56;13.30;99.90
31369;DHT22;18004;48.416;10.066;2023-05-10T02:09:23;13.30;99.90
31369;DHT22;18004;48.416;10.066;2023-05-10T02:11:51;13.30;99.90
31369;DHT22;18004;48.416;10.066;2023-05-10T02:14:18;13.40;99.90
31369;DHT22;18004;48.416;10.066;2023-05-10T02:16:46;13.40;99.90
31369;DHT22;18004;48.416;10.066;2023-05-10T02:19:14;13.40;99.90
31369;DHT22;18004;48.416;10.066;2023-05-10T02:21:41;13.30;99.90
31369;DHT22;18004;48.416;10.066;2023-05-10T02:24:08;13.10;99.90
31369;DHT22;18004;48.416;10.066;2023-05-10T02:26:36;13.10;99.90
31369;DHT22;18004;48.416;10.066;2023-05-10T02:29:04;13.20;99.90
31369;DHT22;18004;48.416;10.066;2023-05-10T02:31:32;13.20;99.90
31369;DHT22;18004;48.416;10.066;2023-05-10T02:33:59;13.30;99.90
31369;DHT22;18004;48.416;10.066;2023-05-10T02:36:27;13.30;99.90
31369;DHT22;18004;48.416;10.066;2023-05-10T02:38:53;13.30;99.90
31369;DHT22;18004;48.416;10.066;2023-05-10T02:41:20;13.40;99.90
31369;DHT22;18004;48.416;10.066;2023-05-10T02:43:50;13.20;99.90
31369;DHT22;18004;48.416;10.066;2023-05-10T02:46:17;13.20;99.90
31369;DHT22;18004;48.416;10.066;2023-05-10T02:48:43;13.20;99.90
31369;DHT22;18004;48.416;10.066;2023-05-10T02:51:12;13.20;99.90
31369;DHT22;18004;48.416;10.066;2023-05-10T02:53:41;13.10;99.90
31369;DHT22;18004;48.416;10.066;2023-05-10T02:56:23;13.10;99.90
31369;DHT22;18004;48.416;10.066;2023-05-10T02:58:50;13.10;99.90
31369;DHT22;18004;48.416;10.066;2023-05-10T03:01:17;13.10;99.90
31369;DHT22;18004;48.416;10.066;2023-05-10T03:03:42;13.10;99.90
31369;DHT22;18004;48.416;10.066;2023-05-10T03:06:08;13.10;99.90
31369;DHT22;18004;48.416;10.066;2023-05-10T03:08:35;13.00;99.90
31369;DHT22;18004;48.416;10.066;2023-05-10T03:14:07;13.10;99.90
31369;DHT22;18004;48.416;10.066;2023-05-10T03:17:06;13.10;99.90
31369;DHT22;18004;48.416;10.066;2023-05-10T03:19:45;13.00;99.90
31369;DHT22;18004;48.416;10.066;2023-05-10T03:22:14;12.90;99.90
31369;DHT22;18004;48.416;10.066;2023-05-10T03:24:45;13.00;99.90
31369;DHT22;18004;48.416;10.066;2023-05-10T03:27:14;12.90;99.90
31369;DHT22;18004;48.416;10.066;2023-05-10T03:29:40;12.90;99.90
31369;DHT22;18004;48.416;10.066;2023-05-10T03:32:06;12.80;99.90
31369;DHT22;18004;48.416;10.066;2023-05-10T03:34:32;12.80;99.90
31369;DHT22;18004;48.416;10.066;2023-05-10T03:36:58;12.90;99.90
31369;DHT22;18004;48.416;10.066;2023-05-10T03:39:24;12.90;99.90
31369;DHT22;18004;48.416;10.066;2023-05-10T03:41:50;12.80;99.90
31369;DHT22;18004;48.416;10.066;2023-05-10T03:44:16;12.80;99.90
31369;DHT22;18004;48.416;10.066;2023-05-10T03:46:41;12.80;99.90
31369;DHT22;18004;48.416;10.066;2023-05-10T03:49:07;12.80;99.90
31369;DHT22;18004;48.416;10.066;2023-05-10T03:51:33;12.80;99.90
31369;DHT22;18004;48.416;10.066;2023-05-10T03:53:58;12.70;99.90
31369;DHT22;18004;48.416;10.066;2023-05-10T03:56:24;12.70;99.90
31369;DHT22;18004;48.416;10.066;2023-05-10T03:58:50;12.70;99.90
31369;DHT22;18004;48.416;10.066;2023-05-10T04:01:16;12.70;99.90
31369;DHT22;18004;48.416;10.066;2023-05-10T04:03:41;12.80;99.90
31369;DHT22;18004;48.416;10.066;2023-05-10T04:06:07;12.70;99.90
31369;DHT22;18004;48.416;10.066;2023-05-10T04:08:37;12.80;99.90
31369;DHT22;18004;48.416;10.066;2023-05-10T04:11:10;12.70;99.90
31369;DHT22;18004;48.416;10.066;2023-05-10T04:13:37;12.70;99.90
31369;DHT22;18004;48.416;10.066;2023-05-10T04:16:04;12.60;99.90
31369;DHT22;18004;48.416;10.066;2023-05-10T04:18:30;12.60;99.90
31369;DHT22;18004;48.416;10.066;2023-05-10T04:20:56;12.60;99.90
31369;DHT22;18004;48.416;10.066;2023-05-10T04:23:21;12.60;99.90
31369;DHT22;18004;48.416;10.066;2023-05-10T04:25:47;12.50;99.90
31369;DHT22;18004;48.416;10.066;2023-05-10T04:28:13;12.50;99.90
31369;DHT22;18004;48.416;10.066;2023-05-10T04:30:39;12.50;99.90
31369;DHT22;18004;48.416;10.066;2023-05-10T04:33:05;12.50;99.90
31369;DHT22;18004;48.416;10.066;2023-05-10T04:35:31;12.50;99.90
31369;DHT22;18004;48.416;10.066;2023-05-10T04:37:57;12.50;99.90
31369;DHT22;18004;48.416;10.066;2023-05-10T04:40:23;12.60;99.90
31369;DHT22;18004;48.416;10.066;2023-05-10T04:42:48;12.50;99.90
31369;DHT22;18004;48.416;10.066;2023-05-10T04:45:14;12.50;99.90
31369;DHT22;18004;48.416;10.066;2023-05-10T04:47:41;12.50;99.90
31369;DHT22;18004;48.416;10.066;2023-05-10T04:50:07;12.60;99.90
31369;DHT22;18004;48.416;10.066;2023-05-10T04:52:33;12.50;99.90
31369;DHT22;18004;48.416;10.066;2023-05-10T04:54:59;12.50;99.90
31369;DHT22;18004;48.416;10.066;2023-05-10T04:57:24;12.50;99.90
31369;DHT22;18004;48.416;10.066;2023-05-10T04:59:50;12.60;99.90
31369;DHT22;18004;48.416;10.066;2023-05-10T05:02:16;12.60;99.90
31369;DHT22;18004;48.416;10.066;2023-05-10T05:04:42;12.60;99.90
31369;DHT22;18004;48.416;10.066;2023-05-10T05:07:07;12.60;99.90
31369;DHT22;18004;48.416;10.066;2023-05-10T05:09:33;12.70;99.90
31369;DHT22;18004;48.416;10.066;2023-05-10T05:11:59;12.70;99.90
31369;DHT22;18004;48.416;10.066;2023-05-10T05:14:25;12.70;99.90
31369;DHT22;18004;48.416;10.066;2023-05-10T05:16:52;12.70;99.90
31369;DHT22;18004;48.416;10.066;2023-05-10T05:19:17;12.70;99.90
31369;DHT22;18004;48.416;10.066;2023-05-10T05:21:43;12.70;99.90
31369;DHT22;18004;48.416;10.066;2023-05-10T05:24:09;12.70;99.90
31369;DHT22;18004;48.416;10.066;2023-05-10T05:26:36;12.80;99.90
31369;DHT22;18004;48.416;10.066;2023-05-10T05:29:02;12.80;99.90
31369;DHT22;18004;48.416;10.066;2023-05-10T05:31:28;12.80;99.90
31369;DHT22;18004;48.416;10.066;2023-05-10T05:33:54;12.80;99.90
31369;DHT22;18004;48.416;10.066;2023-05-10T05:36:21;12.80;99.90
31369;DHT22;18004;48.416;10.066;2023-05-10T05:38:46;12.90;99.90
31369;DHT22;18004;48.416;10.066;2023-05-10T05:41:13;12.80;99.90
31369;DHT22;18004;48.416;10.066;2023-05-10T05:43:39;12.90;99.90
31369;DHT22;18004;48.416;10.066;2023-05-10T05:46:04;12.90;99.90
31369;DHT22;18004;48.416;10.066;2023-05-10T05:48:30;12.90;99.90
31369;DHT22;18004;48.416;10.066;2023-05-10T05:50:57;12.90;99.90
31369;DHT22;18004;48.416;10.066;2023-05-10T05:53:23;12.90;99.90
31369;DHT22;18004;48.416;10.066;2023-05-10T05:55:57;12.90;99.90
31369;DHT22;18004;48.416;10.066;2023-05-10T05:58:24;12.90;99.90
31369;DHT22;18004;48.416;10.066;2023-05-10T06:00:50;12.90;99.90
31369;DHT22;18004;48.416;10.066;2023-05-10T06:03:17;12.90;99.90
31369;DHT22;18004;48.416;10.066;2023-05-10T06:05:43;12.90;99.90
31369;DHT22;18004;48.416;10.066;2023-05-10T06:08:09;12.90;99.90
31369;DHT22;18004;48.416;10.066;2023-05-10T06:10:35;12.90;99.90
31369;DHT22;18004;48.416;10.066;2023-05-10T06:13:01;12.90;99.90
31369;DHT22;18004;48.416;10.066;2023-05-10T06:15:27;12.90;99.90
31369;DHT22;18004;48.416;10.066;2023-05-10T06:17:53;13.00;99.90
31369;DHT22;18004;48.416;10.066;2023-05-10T06:20:19;13.00;99.90
31369;DHT22;18004;48.416;10.066;2023-05-10T06:22:45;13.00;99.90
31369;DHT22;18004;48.416;10.066;2023-05-10T06:25:10;13.10;99.90
31369;DHT22;18004;48.416;10.066;2023-05-10T06:27:37;13.20;99.90
31369;DHT22;18004;48.416;10.066;2023-05-10T06:30:03;13.20;99.90
31369;DHT22;18004;48.416;10.066;2023-05-10T06:32:29;13.30;99.90
31369;DHT22;18004;48.416;10.066;2023-05-10T06:34:55;13.30;99.90
31369;DHT22;18004;48.416;10.066;2023-05-10T06:37:20;13.40;99.90
31369;DHT22;18004;48.416;10.066;2023-05-10T06:39:46;13.50;99.90
31369;DHT22;18004;48.416;10.066;2023-05-10T06:42:12;13.60;99.90
31369;DHT22;18004;48.416;10.066;2023-05-10T06:44:38;13.70;99.90
31369;DHT22;18004;48.416;10.066;2023-05-10T06:47:03;13.80;99.90
31369;DHT22;18004;48.416;10.066;2023-05-10T06:49:29;13.70;99.90
31369;DHT22;18004;48.416;10.066;2023-05-10T06:51:55;13.80;99.90
31369;DHT22;18004;48.416;10.066;2023-05-10T06:54:21;13.90;99.90
31369;DHT22;18004;48.416;10.066;2023-05-10T06:56:48;13.80;99.90
31369;DHT22;18004;48.416;10.066;2023-05-10T06:59:14;13.90;99.90
31369;DHT22;18004;48.416;10.066;2023-05-10T07:01:42;13.80;99.90
31369;DHT22;18004;48.416;10.066;2023-05-10T07:04:08;13.90;99.90
31369;DHT22;18004;48.416;10.066;2023-05-10T07:06:34;13.90;99.90
31369;DHT22;18004;48.416;10.066;2023-05-10T07:09:00;13.90;99.90
31369;DHT22;18004;48.416;10.066;2023-05-10T07:11:26;13.90;99.90
31369;DHT22;18004;48.416;10.066;2023-05-10T07:13:52;13.90;99.90
31369;DHT22;18004;48.416;10.066;2023-05-10T07:16:18;13.90;99.90
31369;DHT22;18004;48.416;10.066;2023-05-10T07:18:43;13.90;99.90
31369;DHT22;18004;48.416;10.066;2023-05-10T07:21:09;14.00;99.90
31369;DHT22;18004;48.416;10.066;2023-05-10T07:23:35;14.10;99.90
31369;DHT22;18004;48.416;10.066;2023-05-10T07:26:01;14.10;99.90
31369;DHT22;18004;48.416;10.066;2023-05-10T07:28:27;14.20;99.90
31369;DHT22;18004;48.416;10.066;2023-05-10T07:30:53;14.30;99.90
31369;DHT22;18004;48.416;10.066;2023-05-10T07:33:19;14.40;99.90
31369;DHT22;18004;48.416;10.066;2023-05-10T07:35:45;14.40;99.90
31369;DHT22;18004;48.416;10.066;2023-05-10T07:38:10;14.40;99.90
31369;DHT22;18004;48.416;10.066;2023-05-10T07:40:36;14.40;99.90
31369;DHT22;18004;48.416;10.066;2023-05-10T07:43:02;14.40;99.90
31369;DHT22;18004;48.416;10.066;2023-05-10T07:45:28;14.50;99.90
31369;DHT22;18004;48.416;10.066;2023-05-10T07:47:54;14.60;99.90
31369;DHT22;18004;48.416;10.066;2023-05-10T07:50:20;14.60;99.90
31369;DHT22;18004;48.416;10.066;2023-05-10T07:52:47;14.40;99.90
31369;DHT22;18004;48.416;10.066;2023-05-10T07:55:13;14.40;99.90
31369;DHT22;18004;48.416;10.066;2023-05-10T07:57:39;14.40;99.90
31369;DHT22;18004;48.416;10.066;2023-05-10T08:00:06;14.40;99.90
31369;DHT22;18004;48.416;10.066;2023-05-10T08:02:34;14.30;99.90
31369;DHT22;18004;48.416;10.066;2023-05-10T08:05:00;14.30;99.90
31369;DHT22;18004;48.416;10.066;2023-05-10T08:07:26;14.40;99.90
31369;DHT22;18004;48.416;10.066;2023-05-10T08:09:52;14.50;99.90
31369;DHT22;18004;48.416;10.066;2023-05-10T08:12:17;14.50;99.90
31369;DHT22;18004;48.416;10.066;2023-05-10T08:14:43;14.50;99.90
31369;DHT22;18004;48.416;10.066;2023-05-10T08:17:09;14.70;99.90
31369;DHT22;18004;48.416;10.066;2023-05-10T08:19:34;14.70;99.90
31369;DHT22;18004;48.416;10.066;2023-05-10T08:22:00;14.70;99.90
31369;DHT22;18004;48.416;10.066;2023-05-10T08:24:26;14.80;99.90
31369;DHT22;18004;48.416;10.066;2023-05-10T08:26:52;15.00;99.90
31369;DHT22;18004;48.416;10.066;2023-05-10T08:29:18;15.00;99.90
31369;DHT22;18004;48.416;10.066;2023-05-10T08:31:43;15.00;99.90
31369;DHT22;18004;48.416;10.066;2023-05-10T08:34:09;14.90;99.90
31369;DHT22;18004;48.416;10.066;2023-05-10T08:36:35;15.00;99.90
31369;DHT22;18004;48.416;10.066;2023-05-10T08:39:01;14.90;99.90
31369;DHT22;18004;48.416;10.066;2023-05-10T08:41:27;15.10;99.90
31369;DHT22;18004;48.416;10.066;2023-05-10T08:43:54;15.30;99.90
31369;DHT22;18004;48.416;10.066;2023-05-10T08:46:21;15.30;99.90
31369;DHT22;18004;48.416;10.066;2023-05-10T08:48:48;15.40;99.90
31369;DHT22;18004;48.416;10.066;2023-05-10T08:51:17;15.60;99.90
31369;DHT22;18004;48.416;10.066;2023-05-10T08:53:44;15.70;99.90
31369;DHT22;18004;48.416;10.066;2023-05-10T08:56:10;15.80;99.90
31369;DHT22;18004;48.416;10.066;2023-05-10T08:58:37;15.90;99.90
31369;DHT22;18004;48.416;10.066;2023-05-10T09:01:03;16.00;99.90
31369;DHT22;18004;48.416;10.066;2023-05-10T09:03:30;16.00;99.90
31369;DHT22;18004;48.416;10.066;2023-05-10T09:05:56;16.10;99.90
31369;DHT22;18004;48.416;10.066;2023-05-10T09:08:23;16.10;99.90
31369;DHT22;18004;48.416;10.066;2023-05-10T09:10:51;16.20;99.90
31369;DHT22;18004;48.416;10.066;2023-05-10T09:13:18;16.40;99.10
31369;DHT22;18004;48.416;10.066;2023-05-10T09:15:45;16.60;97.40
31369;DHT22;18004;48.416;10.066;2023-05-10T09:18:11;16.70;95.40
31369;DHT22;18004;48.416;10.066;2023-05-10T09:20:37;16.70;94.30
31369;DHT22;18004;48.416;10.066;2023-05-10T09:23:03;16.60;86.10
31369;DHT22;18004;48.416;10.066;2023-05-10T09:25:28;16.60;94.70
31369;DHT22;18004;48.416;10.066;2023-05-10T09:27:55;16.50;93.30
31369;DHT22;18004;48.416;10.066;2023-05-10T09:30:25;16.40;97.30
31369;DHT22;18004;48.416;10.066;2023-05-10T09:32:51;16.30;98.00
31369;DHT22;18004;48.416;10.066;2023-05-10T09:35:19;16.50;93.50
31369;DHT22;18004;48.416;10.066;2023-05-10T09:37:46;16.50;95.70
31369;DHT22;18004;48.416;10.066;2023-05-10T09:40:18;16.40;94.10
31369;DHT22;18004;48.416;10.066;2023-05-10T09:43:01;16.00;84.90
31369;DHT22;18004;48.416;10.066;2023-05-10T09:45:29;15.90;90.50
31369;DHT22;18004;48.416;10.066;2023-05-10T09:47:56;16.10;90.30
31369;DHT22;18004;48.416;10.066;2023-05-10T09:50:22;16.30;94.60
31369;DHT22;18004;48.416;10.066;2023-05-10T09:52:50;16.10;92.20
31369;DHT22;18004;48.416;10.066;2023-05-10T09:55:18;16.20;94.80
31369;DHT22;18004;48.416;10.066;2023-05-10T09:57:46;16.00;92.70
31369;DHT22;18004;48.416;10.066;2023-05-10T10:00:19;16.00;90.90
31369;DHT22;18004;48.416;10.066;2023-05-10T10:02:47;16.00;91.90
31369;DHT22;18004;48.416;10.066;2023-05-10T10:05:13;16.10;90.50
31369;DHT22;18004;48.416;10.066;2023-05-10T10:07:39;16.10;90.30
31369;DHT22;18004;48.416;10.066;2023-05-10T10:10:06;16.10;90.30
31369;DHT22;18004;48.416;10.066;2023-05-10T10:12:37;16.20;92.50
31369;DHT22;18004;48.416;10.066;2023-05-10T10:15:03;16.10;85.10
31369;DHT22;18004;48.416;10.066;2023-05-10T10:17:30;16.00;90.70
31369;DHT22;18004;48.416;10.066;2023-05-10T10:19:57;16.00;86.20
31369;DHT22;18004;48.416;10.066;2023-05-10T10:22:23;15.90;83.00
31369;DHT22;18004;48.416;10.066;2023-05-10T10:24:50;15.90;82.20
31369;DHT22;18004;48.416;10.066;2023-05-10T10:27:23;16.10;83.20
31369;DHT22;18004;48.416;10.066;2023-05-10T10:30:03;16.20;87.50
31369;DHT22;18004;48.416;10.066;2023-05-10T10:35:22;16.90;68.20
31369;DHT22;18004;48.416;10.066;2023-05-10T10:37:50;16.80;74.60
31369;DHT22;18004;48.416;10.066;2023-05-10T10:40:23;16.70;80.10
31369;DHT22;18004;48.416;10.066;2023-05-10T10:42:50;16.70;74.20
31369;DHT22;18004;48.416;10.066;2023-05-10T10:45:16;17.00;64.20
31369;DHT22;18004;48.416;10.066;2023-05-10T10:47:42;17.00;62.80
31369;DHT22;18004;48.416;10.066;2023-05-10T10:50:09;16.90;68.90
31369;DHT22;18004;48.416;10.066;2023-05-10T10:52:43;16.90;59.70
31369;DHT22;18004;48.416;10.066;2023-05-10T10:55:19;17.00;63.90
31369;DHT22;18004;48.416;10.066;2023-05-10T10:57:50;16.90;64.80
31369;DHT22;18004;48.416;10.066;2023-05-10T11:08:12;16.40;59.10
31369;DHT22;18004;48.416;10.066;2023-05-10T11:10:38;16.80;65.20
31369;DHT22;18004;48.416;10.066;2023-05-10T11:13:08;17.00;57.90
31369;DHT22;18004;48.416;10.066;2023-05-10T11:15:39;17.00;50.50
31369;DHT22;18004;48.416;10.066;2023-05-10T11:18:24;16.80;56.80
31369;DHT22;18004;48.416;10.066;2023-05-10T11:23:47;16.70;74.90
31369;DHT22;18004;48.416;10.066;2023-05-10T11:26:13;16.60;60.50
31369;DHT22;18004;48.416;10.066;2023-05-10T11:31:08;16.30;83.30
31369;DHT22;18004;48.416;10.066;2023-05-10T11:33:49;16.40;83.40
31369;DHT22;18004;48.416;10.066;2023-05-10T11:36:21;16.30;83.30
31369;DHT22;18004;48.416;10.066;2023-05-10T11:38:47;16.20;91.80
31369;DHT22;18004;48.416;10.066;2023-05-10T11:41:16;16.20;92.20
31369;DHT22;18004;48.416;10.066;2023-05-10T11:43:42;16.20;92.40
31369;DHT22;18004;48.416;10.066;2023-05-10T11:46:11;16.30;90.50
31369;DHT22;18004;48.416;10.066;2023-05-10T11:48:38;16.50;85.40
31369;DHT22;18004;48.416;10.066;2023-05-10T11:51:04;16.20;83.50
31369;DHT22;18004;48.416;10.066;2023-05-10T11:53:32;16.30;85.20
31369;DHT22;18004;48.416;10.066;2023-05-10T11:56:07;16.20;74.80
31369;DHT22;18004;48.416;10.066;2023-05-10T11:58:34;16.20;65.50
31369;DHT22;18004;48.416;10.066;2023-05-10T12:01:01;16.20;71.50
31369;DHT22;18004;48.416;10.066;2023-05-10T12:03:27;16.20;68.90
31369;DHT22;18004;48.416;10.066;2023-05-10T12:05:54;16.10;75.00
31369;DHT22;18004;48.416;10.066;2023-05-10T12:08:22;16.40;73.30
31369;DHT22;18004;48.416;10.066;2023-05-10T12:10:49;16.70;80.40
31369;DHT22;18004;48.416;10.066;2023-05-10T12:13:15;16.90;71.50
31369;DHT22;18004;48.416;10.066;2023-05-10T12:15:42;17.10;64.80
31369;DHT22;18004;48.416;10.066;2023-05-10T12:18:11;17.10;64.10
31369;DHT22;18004;48.416;10.066;2023-05-10T12:20:38;17.20;58.70
31369;DHT22;18004;48.416;10.066;2023-05-10T12:23:04;16.90;89.60
31369;DHT22;18004;48.416;10.066;2023-05-10T12:25:32;16.80;91.30
31369;DHT22;18004;48.416;10.066;2023-05-10T12:28:00;16.40;89.40
31369;DHT22;18004;48.416;10.066;2023-05-10T12:30:28;16.30;97.00
31369;DHT22;18004;48.416;10.066;2023-05-10T12:33:06;16.10;98.60
31369;DHT22;18004;48.416;10.066;2023-05-10T12:35:33;16.00;99.90
31369;DHT22;18004;48.416;10.066;2023-05-10T12:37:59;15.90;99.90
31369;DHT22;18004;48.416;10.066;2023-05-10T12:40:25;15.80;99.90
31369;DHT22;18004;48.416;10.066;2023-05-10T12:42:51;15.70;99.90
31369;DHT22;18004;48.416;10.066;2023-05-10T12:45:18;15.80;99.90
31369;DHT22;18004;48.416;10.066;2023-05-10T12:47:44;15.60;99.90
31369;DHT22;18004;48.416;10.066;2023-05-10T12:50:10;15.50;99.90
31369;DHT22;18004;48.416;10.066;2023-05-10T12:52:35;15.30;99.90
31369;DHT22;18004;48.416;10.066;2023-05-10T12:55:01;15.30;99.90
31369;DHT22;18004;48.416;10.066;2023-05-10T12:57:28;15.20;99.90
31369;DHT22;18004;48.416;10.066;2023-05-10T12:59:54;15.00;99.90
31369;DHT22;18004;48.416;10.066;2023-05-10T13:02:20;15.00;99.90
31369;DHT22;18004;48.416;10.066;2023-05-10T13:04:48;14.90;99.90
31369;DHT22;18004;48.416;10.066;2023-05-10T13:07:14;15.10;99.90
31369;DHT22;18004;48.416;10.066;2023-05-10T13:09:40;15.00;99.90
31369;DHT22;18004;48.416;10.066;2023-05-10T13:12:06;15.00;99.90
31369;DHT22;18004;48.416;10.066;2023-05-10T13:14:32;15.00;99.90
31369;DHT22;18004;48.416;10.066;2023-05-10T13:16:57;14.80;99.90
31369;DHT22;18004;48.416;10.066;2023-05-10T13:19:23;14.90;99.90
31369;DHT22;18004;48.416;10.066;2023-05-10T13:21:50;14.90;99.90
31369;DHT22;18004;48.416;10.066;2023-05-10T13:24:15;14.60;99.90
31369;DHT22;18004;48.416;10.066;2023-05-10T13:26:43;14.30;99.90
31369;DHT22;18004;48.416;10.066;2023-05-10T13:29:08;13.60;99.90
31369;DHT22;18004;48.416;10.066;2023-05-10T13:31:34;13.10;99.90
31369;DHT22;18004;48.416;10.066;2023-05-10T13:34:01;12.90;99.90
31369;DHT22;18004;48.416;10.066;2023-05-10T13:36:27;12.90;99.90
31369;DHT22;18004;48.416;10.066;2023-05-10T13:38:52;12.70;99.90
31369;DHT22;18004;48.416;10.066;2023-05-10T13:41:18;12.70;99.90
31369;DHT22;18004;48.416;10.066;2023-05-10T13:43:44;12.90;99.90
31369;DHT22;18004;48.416;10.066;2023-05-10T13:46:10;13.10;99.90
31369;DHT22;18004;48.416;10.066;2023-05-10T13:48:36;13.00;99.90
31369;DHT22;18004;48.416;10.066;2023-05-10T13:51:04;12.90;99.90
31369;DHT22;18004;48.416;10.066;2023-05-10T13:53:30;12.90;99.90
31369;DHT22;18004;48.416;10.066;2023-05-10T13:55:56;13.10;99.90
31369;DHT22;18004;48.416;10.066;2023-05-10T13:58:22;13.30;99.90
31369;DHT22;18004;48.416;10.066;2023-05-10T14:00:49;13.50;99.90
31369;DHT22;18004;48.416;10.066;2023-05-10T14:03:14;13.50;99.90
31369;DHT22;18004;48.416;10.066;2023-05-10T14:05:40;13.60;99.90
31369;DHT22;18004;48.416;10.066;2023-05-10T14:08:06;13.70;99.90
31369;DHT22;18004;48.416;10.066;2023-05-10T14:10:32;13.70;99.90
31369;DHT22;18004;48.416;10.066;2023-05-10T14:12:58;13.60;99.90
31369;DHT22;18004;48.416;10.066;2023-05-10T14:15:24;13.70;99.90
31369;DHT22;18004;48.416;10.066;2023-05-10T14:17:50;13.60;99.90
31369;DHT22;18004;48.416;10.066;2023-05-10T14:20:15;13.70;99.90
31369;DHT22;18004;48.416;10.066;2023-05-10T14:22:41;13.60;99.90
31369;DHT22;18004;48.416;10.066;2023-05-10T14:25:07;13.70;99.90
31369;DHT22;18004;48.416;10.066;2023-05-10T14:27:33;13.70;99.90
31369;DHT22;18004;48.416;10.066;2023-05-10T14:29:59;13.80;99.90
31369;DHT22;18004;48.416;10.066;2023-05-10T14:32:25;13.80;99.90
31369;DHT22;18004;48.416;10.066;2023-05-10T14:34:52;13.80;99.90
31369;DHT22;18004;48.416;10.066;2023-05-10T14:37:18;13.90;99.90
31369;DHT22;18004;48.416;10.066;2023-05-10T14:39:44;13.90;99.90
31369;DHT22;18004;48.416;10.066;2023-05-10T14:42:09;13.80;99.90
31369;DHT22;18004;48.416;10.066;2023-05-10T14:44:35;13.70;99.90
31369;DHT22;18004;48.416;10.066;2023-05-10T14:47:01;13.70;99.90
31369;DHT22;18004;48.416;10.066;2023-05-10T14:49:27;13.60;99.90
31369;DHT22;18004;48.416;10.066;2023-05-10T14:51:52;13.40;99.90
31369;DHT22;18004;48.416;10.066;2023-05-10T14:54:18;13.40;99.90
31369;DHT22;18004;48.416;10.066;2023-05-10T14:56:44;13.50;99.90
31369;DHT22;18004;48.416;10.066;2023-05-10T14:59:10;13.40;99.90
31369;DHT22;18004;48.416;10.066;2023-05-10T15:01:36;13.40;99.90
31369;DHT22;18004;48.416;10.066;2023-05-10T15:04:05;13.50;99.90
31369;DHT22;18004;48.416;10.066;2023-05-10T15:06:32;13.60;99.90
31369;DHT22;18004;48.416;10.066;2023-05-10T15:08:59;13.60;99.90
31369;DHT22;18004;48.416;10.066;2023-05-10T15:11:25;13.60;99.90
31369;DHT22;18004;48.416;10.066;2023-05-10T15:13:51;13.60;99.90
31369;DHT22;18004;48.416;10.066;2023-05-10T15:16:17;13.70;99.90
31369;DHT22;18004;48.416;10.066;2023-05-10T15:18:43;13.60;99.90
31369;DHT22;18004;48.416;10.066;2023-05-10T15:21:09;13.60;99.90
31369;DHT22;18004;48.416;10.066;2023-05-10T15:23:35;13.60;99.90
31369;DHT22;18004;48.416;10.066;2023-05-10T15:26:01;13.50;99.90
31369;DHT22;18004;48.416;10.066;2023-05-10T15:28:26;13.50;99.90
31369;DHT22;18004;48.416;10.066;2023-05-10T15:30:52;13.40;99.90
31369;DHT22;18004;48.416;10.066;2023-05-10T15:33:18;13.30;99.90
31369;DHT22;18004;48.416;10.066;2023-05-10T15:35:43;13.20;99.90
31369;DHT22;18004;48.416;10.066;2023-05-10T15:38:09;13.30;99.90
31369;DHT22;18004;48.416;10.066;2023-05-10T15:40:35;13.40;99.90
31369;DHT22;18004;48.416;10.066;2023-05-10T15:43:01;13.50;99.90
31369;DHT22;18004;48.416;10.066;2023-05-10T15:45:27;13.50;99.90
31369;DHT22;18004;48.416;10.066;2023-05-10T15:47:52;13.60;99.90